sensor_id;sensor_type;location;lat;lon;timestamp;P1;durP1;ratioP1;P2;durP2;ratioP2
60306;SDS011;46155;52.364;6.580;2023-07-24T03:03:13;28.43;;;26.73;;
60306;SDS011;46155;52.364;6.580;2023-07-24T03:05:39;27.40;;;25.77;;
60306;SDS011;46155;52.364;6.580;2023-07-24T03:08:04;30.03;;;28.03;;
60306;SDS011;46155;52.364;6.580;2023-07-24T03:10:29;29.17;;;27.17;;
60306;SDS011;46155;52.364;6.580;2023-07-24T03:12:55;27.33;;;25.73;;
60306;SDS011;46155;52.364;6.580;2023-07-24T03:15:20;28.10;;;26.30;;
60306;SDS011;46155;52.364;6.580;2023-07-24T03:17:46;28.47;;;26.47;;
60306;SDS011;46155;52.364;6.580;2023-07-24T03:20:15;29.30;;;27.50;;
60306;SDS011;46155;52.364;6.580;2023-07-24T03:22:42;27.83;;;26.07;;
60306;SDS011;46155;52.364;6.580;2023-07-24T03:25:08;28.43;;;26.83;;
60306;SDS011;46155;52.364;6.580;2023-07-24T03:27:33;28.57;;;26.87;;
60306;SDS011;46155;52.364;6.580;2023-07-24T03:29:59;28.70;;;26.80;;
60306;SDS011;46155;52.364;6.580;2023-07-24T03:32:24;28.80;;;27.03;;
60306;SDS011;46155;52.364;6.580;2023-07-24T03:34:50;27.93;;;26.23;;
60306;SDS011;46155;52.364;6.580;2023-07-24T03:37:15;28.80;;;27.00;;
60306;SDS011;46155;52.364;6.580;2023-07-24T03:39:41;28.83;;;27.00;;
60306;SDS011;46155;52.364;6.580;2023-07-24T03:42:06;27.73;;;25.97;;
60306;SDS011;46155;52.364;6.580;2023-07-24T03:44:31;29.00;;;27.10;;
60306;SDS011;46155;52.364;6.580;2023-07-24T03:46:56;30.67;;;28.77;;
60306;SDS011;46155;52.364;6.580;2023-07-24T03:49:22;28.97;;;27.03;;
60306;SDS011;46155;52.364;6.580;2023-07-24T03:51:47;29.27;;;27.57;;
60306;SDS011;46155;52.364;6.580;2023-07-24T03:54:13;29.37;;;27.73;;
60306;SDS011;46155;52.364;6.580;2023-07-24T03:56:38;27.77;;;26.07;;
60306;SDS011;46155;52.364;6.580;2023-07-24T03:59:05;29.47;;;27.67;;
60306;SDS011;46155;52.364;6.580;2023-07-24T04:01:31;29.80;;;27.70;;
60306;SDS011;46155;52.364;6.580;2023-07-24T04:03:57;29.60;;;27.80;;
60306;SDS011;46155;52.364;6.580;2023-07-24T04:06:24;28.90;;;27.20;;
60306;SDS011;46155;52.364;6.580;2023-07-24T04:08:49;27.60;;;25.90;;
60306;SDS011;46155;52.364;6.580;2023-07-24T04:11:14;28.10;;;26.40;;
60306;SDS011;46155;52.364;6.580;2023-07-24T04:13:40;27.53;;;25.77;;
60306;SDS011;46155;52.364;6.580;2023-07-24T04:16:05;28.37;;;26.47;;
60306;SDS011;46155;52.364;6.580;2023-07-24T04:18:30;27.73;;;25.70;;
60306;SDS011;46155;52.364;6.580;2023-07-24T04:20:56;27.43;;;25.73;;
60306;SDS011;46155;52.364;6.580;2023-07-24T04:23:21;27.93;;;26.23;;
60306;SDS011;46155;52.364;6.580;2023-07-24T04:25:49;29.73;;;27.93;;
60306;SDS011;46155;52.364;6.580;2023-07-24T04:28:14;27.60;;;26.00;;
60306;SDS011;46155;52.364;6.580;2023-07-24T04:30:40;26.90;;;25.33;;
60306;SDS011;46155;52.364;6.580;2023-07-24T04:33:05;25.67;;;24.17;;
60306;SDS011;46155;52.364;6.580;2023-07-24T04:35:30;25.70;;;24.20;;
60306;SDS011;46155;52.364;6.580;2023-07-24T04:37:56;23.30;;;21.90;;
60306;SDS011;46155;52.364;6.580;2023-07-24T04:40:22;27.13;;;25.37;;
60306;SDS011;46155;52.364;6.580;2023-07-24T04:42:48;27.10;;;25.43;;
60306;SDS011;46155;52.364;6.580;2023-07-24T04:45:13;25.83;;;24.17;;
60306;SDS011;46155;52.364;6.580;2023-07-24T04:47:38;26.50;;;24.80;;
60306;SDS011;46155;52.364;6.580;2023-07-24T04:50:04;25.87;;;24.07;;
60306;SDS011;46155;52.364;6.580;2023-07-24T04:52:30;24.37;;;22.77;;
60306;SDS011;46155;52.364;6.580;2023-07-24T04:54:55;24.37;;;22.87;;
60306;SDS011;46155;52.364;6.580;2023-07-24T04:57:20;20.90;;;19.60;;
60306;SDS011;46155;52.364;6.580;2023-07-24T04:59:46;21.83;;;20.33;;
60306;SDS011;46155;52.364;6.580;2023-07-24T05:02:11;21.60;;;20.10;;
60306;SDS011;46155;52.364;6.580;2023-07-24T05:04:37;23.23;;;21.63;;
60306;SDS011;46155;52.364;6.580;2023-07-24T05:07:02;23.50;;;21.87;;
60306;SDS011;46155;52.364;6.580;2023-07-24T05:09:27;24.80;;;23.20;;
60306;SDS011;46155;52.364;6.580;2023-07-24T05:11:53;25.40;;;23.40;;
60306;SDS011;46155;52.364;6.580;2023-07-24T05:14:18;23.77;;;22.17;;
60306;SDS011;46155;52.364;6.580;2023-07-24T05:16:43;23.13;;;21.43;;
60306;SDS011;46155;52.364;6.580;2023-07-24T05:19:09;23.60;;;21.63;;
60306;SDS011;46155;52.364;6.580;2023-07-24T05:21:34;23.53;;;21.80;;
60306;SDS011;46155;52.364;6.580;2023-07-24T05:24:00;22.13;;;20.43;;
60306;SDS011;46155;52.364;6.580;2023-07-24T05:26:25;25.03;;;23.30;;
60306;SDS011;46155;52.364;6.580;2023-07-24T05:28:50;24.23;;;22.33;;
60306;SDS011;46155;52.364;6.580;2023-07-24T05:31:17;24.03;;;22.20;;
60306;SDS011;46155;52.364;6.580;2023-07-24T05:33:43;22.83;;;21.23;;
60306;SDS011;46155;52.364;6.580;2023-07-24T05:36:08;23.27;;;21.47;;
60306;SDS011;46155;52.364;6.580;2023-07-24T05:38:34;23.77;;;21.97;;
60306;SDS011;46155;52.364;6.580;2023-07-24T05:41:00;24.57;;;22.50;;
60306;SDS011;46155;52.364;6.580;2023-07-24T05:43:27;25.17;;;22.93;;
60306;SDS011;46155;52.364;6.580;2023-07-24T05:45:54;24.27;;;22.40;;
60306;SDS011;46155;52.364;6.580;2023-07-24T05:48:21;23.63;;;22.00;;
60306;SDS011;46155;52.364;6.580;2023-07-24T05:50:46;25.83;;;23.63;;
60306;SDS011;46155;52.364;6.580;2023-07-24T05:53:12;25.60;;;23.77;;
60306;SDS011;46155;52.364;6.580;2023-07-24T05:55:38;28.03;;;25.53;;
60306;SDS011;46155;52.364;6.580;2023-07-24T05:58:03;24.93;;;23.03;;
60306;SDS011;46155;52.364;6.580;2023-07-24T06:00:29;24.80;;;22.80;;
60306;SDS011;46155;52.364;6.580;2023-07-24T06:02:54;25.03;;;22.87;;
60306;SDS011;46155;52.364;6.580;2023-07-24T06:05:20;27.63;;;25.53;;
60306;SDS011;46155;52.364;6.580;2023-07-24T06:07:45;25.40;;;23.50;;
60306;SDS011;46155;52.364;6.580;2023-07-24T06:10:11;25.60;;;23.40;;
60306;SDS011;46155;52.364;6.580;2023-07-24T06:12:37;26.13;;;23.73;;
60306;SDS011;46155;52.364;6.580;2023-07-24T06:15:03;25.20;;;23.10;;
60306;SDS011;46155;52.364;6.580;2023-07-24T06:17:28;26.63;;;24.20;;
60306;SDS011;46155;52.364;6.580;2023-07-24T06:19:54;26.47;;;24.43;;
60306;SDS011;46155;52.364;6.580;2023-07-24T06:22:19;25.57;;;23.47;;
60306;SDS011;46155;52.364;6.580;2023-07-24T06:24:44;26.07;;;24.07;;
60306;SDS011;46155;52.364;6.580;2023-07-24T06:27:10;27.57;;;25.20;;
60306;SDS011;46155;52.364;6.580;2023-07-24T06:29:35;27.57;;;25.20;;
60306;SDS011;46155;52.364;6.580;2023-07-24T06:32:00;25.57;;;23.63;;
60306;SDS011;46155;52.364;6.580;2023-07-24T06:34:26;28.03;;;25.37;;
60306;SDS011;46155;52.364;6.580;2023-07-24T06:36:51;26.70;;;24.17;;
60306;SDS011;46155;52.364;6.580;2023-07-24T06:39:16;27.57;;;25.47;;
60306;SDS011;46155;52.364;6.580;2023-07-24T06:41:42;28.20;;;25.90;;
60306;SDS011;46155;52.364;6.580;2023-07-24T06:44:07;27.50;;;25.30;;
60306;SDS011;46155;52.364;6.580;2023-07-24T06:46:33;27.63;;;25.33;;
60306;SDS011;46155;52.364;6.580;2023-07-24T06:48:58;28.03;;;25.93;;
60306;SDS011;46155;52.364;6.580;2023-07-24T06:51:23;25.90;;;23.80;;
60306;SDS011;46155;52.364;6.580;2023-07-24T06:53:49;25.93;;;23.93;;
60306;SDS011;46155;52.364;6.580;2023-07-24T06:56:14;25.07;;;22.87;;
60306;SDS011;46155;52.364;6.580;2023-07-24T06:58:39;25.33;;;23.00;;
60306;SDS011;46155;52.364;6.580;2023-07-24T07:01:05;23.53;;;21.53;;
60306;SDS011;46155;52.364;6.580;2023-07-24T07:03:31;25.57;;;23.40;;
60306;SDS011;46155;52.364;6.580;2023-07-24T07:06:00;24.63;;;22.23;;
60306;SDS011;46155;52.364;6.580;2023-07-24T07:08:26;25.13;;;23.13;;
60306;SDS011;46155;52.364;6.580;2023-07-24T07:10:58;26.17;;;23.83;;
60306;SDS011;46155;52.364;6.580;2023-07-24T07:13:24;26.73;;;24.23;;
60306;SDS011;46155;52.364;6.580;2023-07-24T07:15:50;25.90;;;23.80;;
60306;SDS011;46155;52.364;6.580;2023-07-24T07:18:15;25.40;;;23.03;;
60306;SDS011;46155;52.364;6.580;2023-07-24T07:20:47;25.30;;;23.10;;
60306;SDS011;46155;52.364;6.580;2023-07-24T07:23:13;59.97;;;56.03;;
60306;SDS011;46155;52.364;6.580;2023-07-24T07:25:38;82.13;;;76.93;;
60306;SDS011;46155;52.364;6.580;2023-07-24T07:28:04;108.47;;;101.53;;
60306;SDS011;46155;52.364;6.580;2023-07-24T07:30:29;68.80;;;63.67;;
60306;SDS011;46155;52.364;6.580;2023-07-24T07:32:54;56.83;;;52.70;;
60306;SDS011;46155;52.364;6.580;2023-07-24T07:35:20;65.47;;;61.03;;
60306;SDS011;46155;52.364;6.580;2023-07-24T07:37:45;66.60;;;62.00;;
60306;SDS011;46155;52.364;6.580;2023-07-24T07:40:11;74.53;;;69.70;;
60306;SDS011;46155;52.364;6.580;2023-07-24T07:42:37;70.40;;;65.97;;
60306;SDS011;46155;52.364;6.580;2023-07-24T07:45:02;46.40;;;43.33;;
60306;SDS011;46155;52.364;6.580;2023-07-24T07:47:28;69.47;;;65.07;;
60306;SDS011;46155;52.364;6.580;2023-07-24T07:49:53;79.37;;;74.23;;
60306;SDS011;46155;52.364;6.580;2023-07-24T07:52:19;72.03;;;67.37;;
60306;SDS011;46155;52.364;6.580;2023-07-24T07:54:49;35.43;;;33.03;;
60306;SDS011;46155;52.364;6.580;2023-07-24T07:57:15;18.20;;;16.60;;
60306;SDS011;46155;52.364;6.580;2023-07-24T07:59:40;19.67;;;18.10;;
60306;SDS011;46155;52.364;6.580;2023-07-24T08:02:06;17.13;;;15.43;;
60306;SDS011;46155;52.364;6.580;2023-07-24T08:04:32;17.93;;;16.27;;
60306;SDS011;46155;52.364;6.580;2023-07-24T08:06:57;15.50;;;14.20;;
60306;SDS011;46155;52.364;6.580;2023-07-24T08:09:22;17.67;;;15.73;;
60306;SDS011;46155;52.364;6.580;2023-07-24T08:11:49;16.70;;;15.10;;
60306;SDS011;46155;52.364;6.580;2023-07-24T08:14:14;14.47;;;13.17;;
60306;SDS011;46155;52.364;6.580;2023-07-24T08:16:39;14.80;;;13.33;;
60306;SDS011;46155;52.364;6.580;2023-07-24T08:19:05;13.93;;;12.63;;
60306;SDS011;46155;52.364;6.580;2023-07-24T08:21:30;14.57;;;11.80;;
60306;SDS011;46155;52.364;6.580;2023-07-24T08:23:56;14.47;;;13.00;;
60306;SDS011;46155;52.364;6.580;2023-07-24T08:26:22;14.73;;;13.20;;
60306;SDS011;46155;52.364;6.580;2023-07-24T08:28:49;13.43;;;12.13;;
60306;SDS011;46155;52.364;6.580;2023-07-24T08:31:14;14.67;;;13.27;;
60306;SDS011;46155;52.364;6.580;2023-07-24T08:33:40;16.03;;;14.33;;
60306;SDS011;46155;52.364;6.580;2023-07-24T08:36:06;16.80;;;15.20;;
60306;SDS011;46155;52.364;6.580;2023-07-24T08:38:33;15.27;;;13.97;;
60306;SDS011;46155;52.364;6.580;2023-07-24T08:41:02;15.77;;;14.33;;
60306;SDS011;46155;52.364;6.580;2023-07-24T08:43:31;14.03;;;12.73;;
60306;SDS011;46155;52.364;6.580;2023-07-24T08:45:57;12.40;;;11.30;;
60306;SDS011;46155;52.364;6.580;2023-07-24T08:48:25;14.47;;;12.23;;
60306;SDS011;46155;52.364;6.580;2023-07-24T08:50:52;14.03;;;12.53;;
60306;SDS011;46155;52.364;6.580;2023-07-24T08:53:18;14.07;;;12.60;;
60306;SDS011;46155;52.364;6.580;2023-07-24T08:55:45;18.43;;;13.53;;
60306;SDS011;46155;52.364;6.580;2023-07-24T08:58:13;14.50;;;13.10;;
60306;SDS011;46155;52.364;6.580;2023-07-24T09:00:39;13.37;;;12.30;;
60306;SDS011;46155;52.364;6.580;2023-07-24T09:03:04;13.83;;;12.53;;
60306;SDS011;46155;52.364;6.580;2023-07-24T09:05:30;12.93;;;11.67;;
60306;SDS011;46155;52.364;6.580;2023-07-24T09:07:55;14.83;;;12.30;;
60306;SDS011;46155;52.364;6.580;2023-07-24T09:10:27;14.20;;;12.80;;
60306;SDS011;46155;52.364;6.580;2023-07-24T09:12:53;13.50;;;12.20;;
60306;SDS011;46155;52.364;6.580;2023-07-24T09:15:20;14.57;;;12.90;;
60306;SDS011;46155;52.364;6.580;2023-07-24T09:17:52;14.13;;;12.50;;
60306;SDS011;46155;52.364;6.580;2023-07-24T09:20:18;14.40;;;12.90;;
60306;SDS011;46155;52.364;6.580;2023-07-24T09:22:51;15.17;;;11.63;;
60306;SDS011;46155;52.364;6.580;2023-07-24T09:25:17;14.33;;;12.93;;
60306;SDS011;46155;52.364;6.580;2023-07-24T09:27:43;14.40;;;12.93;;
60306;SDS011;46155;52.364;6.580;2023-07-24T09:30:14;13.77;;;12.47;;
60306;SDS011;46155;52.364;6.580;2023-07-24T09:32:40;13.63;;;12.50;;
60306;SDS011;46155;52.364;6.580;2023-07-24T09:35:18;12.73;;;11.63;;
60306;SDS011;46155;52.364;6.580;2023-07-24T09:37:44;14.40;;;13.00;;
60306;SDS011;46155;52.364;6.580;2023-07-24T09:40:10;13.27;;;11.67;;
60306;SDS011;46155;52.364;6.580;2023-07-24T09:42:37;18.90;;;14.00;;
60306;SDS011;46155;52.364;6.580;2023-07-24T09:45:04;13.87;;;12.47;;
60306;SDS011;46155;52.364;6.580;2023-07-24T09:47:30;15.97;;;13.40;;
60306;SDS011;46155;52.364;6.580;2023-07-24T09:49:56;13.43;;;12.00;;
60306;SDS011;46155;52.364;6.580;2023-07-24T09:52:22;13.17;;;11.97;;
60306;SDS011;46155;52.364;6.580;2023-07-24T09:57:24;11.60;;;10.60;;
60306;SDS011;46155;52.364;6.580;2023-07-24T09:59:51;13.43;;;11.97;;
60306;SDS011;46155;52.364;6.580;2023-07-24T10:02:18;12.30;;;11.30;;
60306;SDS011;46155;52.364;6.580;2023-07-24T10:04:44;14.33;;;11.77;;
60306;SDS011;46155;52.364;6.580;2023-07-24T10:07:09;13.83;;;10.90;;
60306;SDS011;46155;52.364;6.580;2023-07-24T10:09:36;12.30;;;11.10;;
60306;SDS011;46155;52.364;6.580;2023-07-24T10:12:04;12.70;;;11.37;;
60306;SDS011;46155;52.364;6.580;2023-07-24T10:14:30;11.63;;;10.60;;
60306;SDS011;46155;52.364;6.580;2023-07-24T10:16:56;11.23;;;10.23;;
60306;SDS011;46155;52.364;6.580;2023-07-24T10:19:22;10.90;;;9.90;;
60306;SDS011;46155;52.364;6.580;2023-07-24T10:21:48;14.53;;;11.50;;
60306;SDS011;46155;52.364;6.580;2023-07-24T10:24:14;14.33;;;10.13;;
60306;SDS011;46155;52.364;6.580;2023-07-24T10:26:40;12.67;;;10.53;;
60306;SDS011;46155;52.364;6.580;2023-07-24T10:29:06;11.90;;;10.70;;
60306;SDS011;46155;52.364;6.580;2023-07-24T10:31:31;11.67;;;10.67;;
60306;SDS011;46155;52.364;6.580;2023-07-24T10:34:03;12.37;;;10.97;;
60306;SDS011;46155;52.364;6.580;2023-07-24T10:36:32;12.60;;;11.33;;
60306;SDS011;46155;52.364;6.580;2023-07-24T10:38:59;12.67;;;11.30;;
60306;SDS011;46155;52.364;6.580;2023-07-24T10:41:35;10.93;;;9.93;;
60306;SDS011;46155;52.364;6.580;2023-07-24T10:44:02;12.33;;;11.13;;
60306;SDS011;46155;52.364;6.580;2023-07-24T10:46:38;11.27;;;10.07;;
60306;SDS011;46155;52.364;6.580;2023-07-24T10:49:05;11.63;;;10.40;;
60306;SDS011;46155;52.364;6.580;2023-07-24T10:51:31;10.47;;;9.47;;
60306;SDS011;46155;52.364;6.580;2023-07-24T10:53:59;11.50;;;9.67;;
60306;SDS011;46155;52.364;6.580;2023-07-24T10:56:24;9.83;;;9.03;;
60306;SDS011;46155;52.364;6.580;2023-07-24T10:58:50;12.47;;;10.60;;
60306;SDS011;46155;52.364;6.580;2023-07-24T11:01:15;11.13;;;10.13;;
60306;SDS011;46155;52.364;6.580;2023-07-24T11:03:42;11.53;;;10.40;;
60306;SDS011;46155;52.364;6.580;2023-07-24T11:06:15;11.23;;;10.23;;
60306;SDS011;46155;52.364;6.580;2023-07-24T11:08:41;11.37;;;10.03;;
60306;SDS011;46155;52.364;6.580;2023-07-24T11:11:07;10.90;;;9.80;;
60306;SDS011;46155;52.364;6.580;2023-07-24T11:13:33;10.67;;;9.77;;
60306;SDS011;46155;52.364;6.580;2023-07-24T11:16:04;12.40;;;10.03;;
60306;SDS011;46155;52.364;6.580;2023-07-24T11:18:30;10.83;;;9.37;;
60306;SDS011;46155;52.364;6.580;2023-07-24T11:20:56;11.70;;;10.67;;
60306;SDS011;46155;52.364;6.580;2023-07-24T11:23:22;14.80;;;10.13;;
60306;SDS011;46155;52.364;6.580;2023-07-24T11:25:51;13.13;;;10.47;;
60306;SDS011;46155;52.364;6.580;2023-07-24T11:28:18;11.90;;;10.53;;
60306;SDS011;46155;52.364;6.580;2023-07-24T11:30:43;13.67;;;10.10;;
60306;SDS011;46155;52.364;6.580;2023-07-24T11:33:10;15.77;;;10.33;;
60306;SDS011;46155;52.364;6.580;2023-07-24T11:35:37;11.43;;;10.33;;
60306;SDS011;46155;52.364;6.580;2023-07-24T11:38:05;12.93;;;11.27;;
60306;SDS011;46155;52.364;6.580;2023-07-24T11:40:35;10.90;;;9.93;;
60306;SDS011;46155;52.364;6.580;2023-07-24T11:43:14;11.10;;;9.90;;
60306;SDS011;46155;52.364;6.580;2023-07-24T11:45:44;13.40;;;10.70;;
60306;SDS011;46155;52.364;6.580;2023-07-24T11:48:10;13.43;;;10.50;;
60306;SDS011;46155;52.364;6.580;2023-07-24T11:50:50;12.10;;;10.80;;
60306;SDS011;46155;52.364;6.580;2023-07-24T11:53:23;11.53;;;10.43;;
60306;SDS011;46155;52.364;6.580;2023-07-24T11:55:51;13.00;;;11.70;;
60306;SDS011;46155;52.364;6.580;2023-07-24T11:58:18;12.20;;;11.10;;
60306;SDS011;46155;52.364;6.580;2023-07-24T12:00:45;13.00;;;11.27;;
60306;SDS011;46155;52.364;6.580;2023-07-24T12:03:12;13.20;;;11.80;;
60306;SDS011;46155;52.364;6.580;2023-07-24T12:05:41;12.63;;;11.33;;
60306;SDS011;46155;52.364;6.580;2023-07-24T12:08:07;13.37;;;12.00;;
60306;SDS011;46155;52.364;6.580;2023-07-24T12:10:35;13.07;;;11.50;;
60306;SDS011;46155;52.364;6.580;2023-07-24T12:13:02;12.47;;;11.27;;
60306;SDS011;46155;52.364;6.580;2023-07-24T12:15:27;12.23;;;11.17;;
60306;SDS011;46155;52.364;6.580;2023-07-24T12:17:53;13.53;;;11.87;;
60306;SDS011;46155;52.364;6.580;2023-07-24T12:20:18;13.23;;;11.97;;
60306;SDS011;46155;52.364;6.580;2023-07-24T12:22:44;12.73;;;11.63;;
60306;SDS011;46155;52.364;6.580;2023-07-24T12:25:09;15.43;;;11.23;;
60306;SDS011;46155;52.364;6.580;2023-07-24T12:27:35;11.70;;;10.70;;
60306;SDS011;46155;52.364;6.580;2023-07-24T12:30:00;10.73;;;9.63;;
60306;SDS011;46155;52.364;6.580;2023-07-24T12:32:26;11.33;;;10.23;;
60306;SDS011;46155;52.364;6.580;2023-07-24T12:34:52;12.43;;;10.97;;
60306;SDS011;46155;52.364;6.580;2023-07-24T12:37:18;12.03;;;10.83;;
60306;SDS011;46155;52.364;6.580;2023-07-24T12:39:45;13.67;;;10.60;;
60306;SDS011;46155;52.364;6.580;2023-07-24T12:42:11;12.50;;;10.23;;
60306;SDS011;46155;52.364;6.580;2023-07-24T12:44:37;13.37;;;10.63;;
60306;SDS011;46155;52.364;6.580;2023-07-24T12:47:05;12.73;;;10.30;;
60306;SDS011;46155;52.364;6.580;2023-07-24T12:49:31;12.13;;;10.90;;
60306;SDS011;46155;52.364;6.580;2023-07-24T12:51:56;14.47;;;11.17;;
60306;SDS011;46155;52.364;6.580;2023-07-24T12:54:22;13.13;;;10.47;;
60306;SDS011;46155;52.364;6.580;2023-07-24T12:56:48;12.00;;;10.80;;
60306;SDS011;46155;52.364;6.580;2023-07-24T12:59:14;11.80;;;10.47;;
60306;SDS011;46155;52.364;6.580;2023-07-24T13:01:39;12.20;;;10.10;;
60306;SDS011;46155;52.364;6.580;2023-07-24T13:04:05;11.73;;;10.63;;
60306;SDS011;46155;52.364;6.580;2023-07-24T13:06:30;12.27;;;11.00;;
60306;SDS011;46155;52.364;6.580;2023-07-24T13:08:56;14.97;;;10.90;;
60306;SDS011;46155;52.364;6.580;2023-07-24T13:11:21;11.53;;;10.20;;
60306;SDS011;46155;52.364;6.580;2023-07-24T13:13:46;12.13;;;10.93;;
60306;SDS011;46155;52.364;6.580;2023-07-24T13:16:12;11.47;;;10.33;;
60306;SDS011;46155;52.364;6.580;2023-07-24T13:18:37;11.70;;;10.50;;
60306;SDS011;46155;52.364;6.580;2023-07-24T13:21:03;14.10;;;10.97;;
60306;SDS011;46155;52.364;6.580;2023-07-24T13:23:31;14.90;;;11.13;;
60306;SDS011;46155;52.364;6.580;2023-07-24T13:25:56;12.20;;;11.00;;
60306;SDS011;46155;52.364;6.580;2023-07-24T13:28:21;15.80;;;10.67;;
60306;SDS011;46155;52.364;6.580;2023-07-24T13:30:47;14.97;;;11.97;;
60306;SDS011;46155;52.364;6.580;2023-07-24T13:33:12;12.13;;;10.87;;
60306;SDS011;46155;52.364;6.580;2023-07-24T13:35:38;12.57;;;11.27;;
60306;SDS011;46155;52.364;6.580;2023-07-24T13:38:03;13.03;;;11.70;;
60306;SDS011;46155;52.364;6.580;2023-07-24T13:40:28;12.50;;;11.40;;
60306;SDS011;46155;52.364;6.580;2023-07-24T13:42:54;12.17;;;11.03;;
60306;SDS011;46155;52.364;6.580;2023-07-24T13:45:19;11.90;;;10.70;;
60306;SDS011;46155;52.364;6.580;2023-07-24T13:47:45;14.83;;;10.30;;
60306;SDS011;46155;52.364;6.580;2023-07-24T13:50:10;12.53;;;10.07;;
60306;SDS011;46155;52.364;6.580;2023-07-24T13:52:35;11.17;;;9.90;;
60306;SDS011;46155;52.364;6.580;2023-07-24T13:55:02;12.70;;;10.27;;
60306;SDS011;46155;52.364;6.580;2023-07-24T13:57:27;12.90;;;11.20;;
60306;SDS011;46155;52.364;6.580;2023-07-24T13:59:52;10.63;;;9.63;;
60306;SDS011;46155;52.364;6.580;2023-07-24T14:02:18;14.40;;;11.13;;
60306;SDS011;46155;52.364;6.580;2023-07-24T14:04:43;10.10;;;9.07;;
60306;SDS011;46155;52.364;6.580;2023-07-24T14:07:09;12.87;;;10.47;;
60306;SDS011;46155;52.364;6.580;2023-07-24T14:09:35;13.33;;;9.67;;
60306;SDS011;46155;52.364;6.580;2023-07-24T14:12:00;10.90;;;9.90;;
60306;SDS011;46155;52.364;6.580;2023-07-24T14:14:25;10.57;;;9.47;;
60306;SDS011;46155;52.364;6.580;2023-07-24T14:16:51;13.57;;;10.07;;
60306;SDS011;46155;52.364;6.580;2023-07-24T14:19:16;10.47;;;9.47;;
60306;SDS011;46155;52.364;6.580;2023-07-24T14:21:42;11.77;;;9.20;;
60306;SDS011;46155;52.364;6.580;2023-07-24T14:24:08;9.27;;;8.40;;
60306;SDS011;46155;52.364;6.580;2023-07-24T14:26:34;8.57;;;7.77;;
60306;SDS011;46155;52.364;6.580;2023-07-24T14:29:01;8.10;;;7.40;;
60306;SDS011;46155;52.364;6.580;2023-07-24T14:31:26;8.63;;;7.93;;
60306;SDS011;46155;52.364;6.580;2023-07-24T14:33:53;9.60;;;8.60;;
60306;SDS011;46155;52.364;6.580;2023-07-24T14:36:20;9.60;;;8.80;;
60306;SDS011;46155;52.364;6.580;2023-07-24T14:38:45;14.57;;;11.40;;
60306;SDS011;46155;52.364;6.580;2023-07-24T14:41:10;13.37;;;10.90;;
60306;SDS011;46155;52.364;6.580;2023-07-24T14:43:37;9.77;;;8.93;;
60306;SDS011;46155;52.364;6.580;2023-07-24T14:46:04;11.03;;;9.90;;
60306;SDS011;46155;52.364;6.580;2023-07-24T14:48:30;11.20;;;10.10;;
60306;SDS011;46155;52.364;6.580;2023-07-24T14:50:55;12.00;;;11.00;;
60306;SDS011;46155;52.364;6.580;2023-07-24T14:53:20;12.23;;;10.93;;
60306;SDS011;46155;52.364;6.580;2023-07-24T14:55:46;14.53;;;13.20;;
60306;SDS011;46155;52.364;6.580;2023-07-24T14:58:11;12.83;;;11.77;;
60306;SDS011;46155;52.364;6.580;2023-07-24T15:00:37;14.00;;;12.80;;
60306;SDS011;46155;52.364;6.580;2023-07-24T15:03:02;14.30;;;12.97;;
60306;SDS011;46155;52.364;6.580;2023-07-24T15:05:27;15.07;;;13.57;;
60306;SDS011;46155;52.364;6.580;2023-07-24T15:07:53;15.43;;;13.80;;
60306;SDS011;46155;52.364;6.580;2023-07-24T15:10:18;16.23;;;14.67;;
60306;SDS011;46155;52.364;6.580;2023-07-24T15:12:43;16.17;;;14.67;;
60306;SDS011;46155;52.364;6.580;2023-07-24T15:15:09;15.63;;;14.17;;
60306;SDS011;46155;52.364;6.580;2023-07-24T15:17:34;17.83;;;14.93;;
60306;SDS011;46155;52.364;6.580;2023-07-24T15:20:00;17.27;;;15.80;;
60306;SDS011;46155;52.364;6.580;2023-07-24T15:22:25;15.47;;;14.13;;
60306;SDS011;46155;52.364;6.580;2023-07-24T15:24:50;16.60;;;15.20;;
60306;SDS011;46155;52.364;6.580;2023-07-24T15:27:16;19.23;;;16.13;;
60306;SDS011;46155;52.364;6.580;2023-07-24T15:29:41;17.73;;;16.03;;
60306;SDS011;46155;52.364;6.580;2023-07-24T15:32:06;16.83;;;15.07;;
60306;SDS011;46155;52.364;6.580;2023-07-24T15:34:32;17.43;;;16.00;;
60306;SDS011;46155;52.364;6.580;2023-07-24T15:36:58;18.17;;;16.63;;
60306;SDS011;46155;52.364;6.580;2023-07-24T15:39:23;17.97;;;16.03;;
60306;SDS011;46155;52.364;6.580;2023-07-24T15:41:48;19.10;;;17.33;;
60306;SDS011;46155;52.364;6.580;2023-07-24T15:44:14;17.53;;;16.00;;
60306;SDS011;46155;52.364;6.580;2023-07-24T15:46:39;17.43;;;15.90;;
60306;SDS011;46155;52.364;6.580;2023-07-24T15:49:04;17.40;;;15.80;;
60306;SDS011;46155;52.364;6.580;2023-07-24T15:51:30;16.23;;;14.47;;
60306;SDS011;46155;52.364;6.580;2023-07-24T15:53:56;16.83;;;15.20;;
60306;SDS011;46155;52.364;6.580;2023-07-24T15:56:22;16.90;;;15.40;;
60306;SDS011;46155;52.364;6.580;2023-07-24T15:58:48;17.30;;;15.87;;
60306;SDS011;46155;52.364;6.580;2023-07-24T16:01:14;16.33;;;15.13;;
60306;SDS011;46155;52.364;6.580;2023-07-24T16:03:39;17.23;;;15.67;;
60306;SDS011;46155;52.364;6.580;2023-07-24T16:06:04;17.57;;;16.00;;
60306;SDS011;46155;52.364;6.580;2023-07-24T16:08:30;18.20;;;16.73;;
60306;SDS011;46155;52.364;6.580;2023-07-24T16:10:56;14.87;;;13.77;;
60306;SDS011;46155;52.364;6.580;2023-07-24T16:13:22;14.23;;;13.13;;
60306;SDS011;46155;52.364;6.580;2023-07-24T16:15:48;15.23;;;13.83;;
60306;SDS011;46155;52.364;6.580;2023-07-24T16:18:13;16.47;;;14.87;;
60306;SDS011;46155;52.364;6.580;2023-07-24T16:20:38;16.03;;;14.70;;
60306;SDS011;46155;52.364;6.580;2023-07-24T16:23:03;14.27;;;12.47;;
60306;SDS011;46155;52.364;6.580;2023-07-24T16:25:29;13.50;;;12.20;;
60306;SDS011;46155;52.364;6.580;2023-07-24T16:27:54;10.93;;;9.97;;
60306;SDS011;46155;52.364;6.580;2023-07-24T16:30:19;10.63;;;9.83;;
60306;SDS011;46155;52.364;6.580;2023-07-24T16:32:46;11.90;;;9.20;;
60306;SDS011;46155;52.364;6.580;2023-07-24T16:35:11;9.90;;;9.10;;
60306;SDS011;46155;52.364;6.580;2023-07-24T16:37:36;8.87;;;7.63;;
60306;SDS011;46155;52.364;6.580;2023-07-24T16:40:02;8.80;;;8.10;;
60306;SDS011;46155;52.364;6.580;2023-07-24T16:42:27;9.50;;;8.73;;
60306;SDS011;46155;52.364;6.580;2023-07-24T16:44:53;8.00;;;7.50;;
60306;SDS011;46155;52.364;6.580;2023-07-24T16:47:18;8.17;;;7.50;;
60306;SDS011;46155;52.364;6.580;2023-07-24T16:49:43;8.17;;;7.47;;
60306;SDS011;46155;52.364;6.580;2023-07-24T16:52:09;11.87;;;6.40;;
60306;SDS011;46155;52.364;6.580;2023-07-24T16:54:34;8.23;;;7.10;;
60306;SDS011;46155;52.364;6.580;2023-07-24T16:57:01;8.00;;;7.20;;
60306;SDS011;46155;52.364;6.580;2023-07-24T16:59:27;11.40;;;7.13;;
60306;SDS011;46155;52.364;6.580;2023-07-24T17:01:52;8.00;;;7.07;;
60306;SDS011;46155;52.364;6.580;2023-07-24T17:04:18;8.17;;;7.53;;
60306;SDS011;46155;52.364;6.580;2023-07-24T17:06:43;7.60;;;6.90;;
60306;SDS011;46155;52.364;6.580;2023-07-24T17:09:09;8.47;;;7.13;;
60306;SDS011;46155;52.364;6.580;2023-07-24T17:11:34;8.37;;;7.27;;
60306;SDS011;46155;52.364;6.580;2023-07-24T17:13:59;7.47;;;6.67;;
60306;SDS011;46155;52.364;6.580;2023-07-24T17:16:25;8.63;;;7.83;;
60306;SDS011;46155;52.364;6.580;2023-07-24T17:18:50;7.50;;;7.00;;
60306;SDS011;46155;52.364;6.580;2023-07-24T17:21:19;6.57;;;6.07;;